sensor_id;sensor_type;location;lat;lon;timestamp;pressure;altitude;pressure_sealevel;temperature;humidity
55456;BME280;63021;52.836;6.376;2023-11-19T00:00:34;100683.44;;;11.60;88.40
55456;BME280;63021;52.836;6.376;2023-11-19T00:03:08;100678.25;;;11.58;88.37
55456;BME280;63021;52.836;6.376;2023-11-19T00:05:36;100672.22;;;11.56;88.66
55456;BME280;63021;52.836;6.376;2023-11-19T00:08:10;100670.47;;;11.65;88.24
55456;BME280;63021;52.836;6.376;2023-11-19T00:10:38;100665.31;;;11.72;88.25
55456;BME280;63021;52.836;6.376;2023-11-19T00:13:06;100687.22;;;11.84;88.87
55456;BME280;63021;52.836;6.376;2023-11-19T00:15:37;100688.72;;;11.86;88.40
55456;BME280;63021;52.836;6.376;2023-11-19T00:18:12;100667.38;;;11.78;88.50
55456;BME280;63021;52.836;6.376;2023-11-19T00:20:46;100658.53;;;11.77;87.99
55456;BME280;63021;52.836;6.376;2023-11-19T00:23:13;100661.72;;;11.81;88.51
55456;BME280;63021;52.836;6.376;2023-11-19T00:25:44;100652.72;;;11.82;88.00
55456;BME280;63021;52.836;6.376;2023-11-19T00:28:17;100660.25;;;11.87;88.29
55456;BME280;63021;52.836;6.376;2023-11-19T00:30:50;100675.00;;;11.99;88.58
55456;BME280;63021;52.836;6.376;2023-11-19T00:33:26;100672.16;;;12.01;88.37
55456;BME280;63021;52.836;6.376;2023-11-19T00:35:55;100658.00;;;12.00;88.10
55456;BME280;63021;52.836;6.376;2023-11-19T00:38:24;100646.13;;;11.94;88.75
55456;BME280;63021;52.836;6.376;2023-11-19T00:41:02;100650.16;;;11.99;88.60
55456;BME280;63021;52.836;6.376;2023-11-19T00:43:40;100660.53;;;12.10;88.55
55456;BME280;63021;52.836;6.376;2023-11-19T00:46:13;100610.06;;;11.90;88.29
55456;BME280;63021;52.836;6.376;2023-11-19T00:51:55;100641.53;;;12.13;88.25
55456;BME280;63021;52.836;6.376;2023-11-19T00:54:28;100633.16;;;12.08;88.26
55456;BME280;63021;52.836;6.376;2023-11-19T00:56:54;100621.13;;;12.04;88.65
55456;BME280;63021;52.836;6.376;2023-11-19T00:59:20;100611.16;;;12.06;88.23
55456;BME280;63021;52.836;6.376;2023-11-19T01:01:46;100609.50;;;12.13;88.56
55456;BME280;63021;52.836;6.376;2023-11-19T01:04:14;100591.50;;;12.15;88.68
55456;BME280;63021;52.836;6.376;2023-11-19T01:06:40;100576.81;;;12.03;88.50
55456;BME280;63021;52.836;6.376;2023-11-19T01:09:05;100594.66;;;12.10;88.33
55456;BME280;63021;52.836;6.376;2023-11-19T01:11:33;100597.81;;;12.06;88.52
55456;BME280;63021;52.836;6.376;2023-11-19T01:14:07;100624.19;;;12.25;88.56
55456;BME280;63021;52.836;6.376;2023-11-19T01:16:35;100614.34;;;12.18;88.35
55456;BME280;63021;52.836;6.376;2023-11-19T01:19:01;100631.22;;;12.26;88.33
55456;BME280;63021;52.836;6.376;2023-11-19T01:21:30;100623.03;;;12.28;88.59
55456;BME280;63021;52.836;6.376;2023-11-19T01:23:59;100632.06;;;12.27;88.10
55456;BME280;63021;52.836;6.376;2023-11-19T01:26:25;100643.25;;;12.30;88.44
55456;BME280;63021;52.836;6.376;2023-11-19T01:28:50;100651.94;;;12.33;88.57
55456;BME280;63021;52.836;6.376;2023-11-19T01:31:18;100640.56;;;12.30;88.73
55456;BME280;63021;52.836;6.376;2023-11-19T01:33:46;100640.56;;;12.30;88.63
55456;BME280;63021;52.836;6.376;2023-11-19T01:36:18;100631.56;;;12.32;88.62
55456;BME280;63021;52.836;6.376;2023-11-19T01:38:46;100632.59;;;12.39;88.72
55456;BME280;63021;52.836;6.376;2023-11-19T01:41:12;100623.22;;;12.35;88.46
55456;BME280;63021;52.836;6.376;2023-11-19T01:43:39;100623.59;;;12.40;88.54
55456;BME280;63021;52.836;6.376;2023-11-19T01:46:08;100613.91;;;12.39;88.14
55456;BME280;63021;52.836;6.376;2023-11-19T01:48:44;100591.19;;;12.26;88.83
55456;BME280;63021;52.836;6.376;2023-11-19T01:51:12;100586.53;;;12.28;88.40
55456;BME280;63021;52.836;6.376;2023-11-19T01:53:45;100608.41;;;12.48;88.41
55456;BME280;63021;52.836;6.376;2023-11-19T01:56:13;100614.91;;;12.46;88.36
55456;BME280;63021;52.836;6.376;2023-11-19T01:58:48;100596.19;;;12.38;88.82
55456;BME280;63021;52.836;6.376;2023-11-19T02:01:15;100607.38;;;12.50;88.23
55456;BME280;63021;52.836;6.376;2023-11-19T02:03:40;100595.72;;;12.51;88.54
55456;BME280;63021;52.836;6.376;2023-11-19T02:06:06;100606.22;;;12.52;88.57
55456;BME280;63021;52.836;6.376;2023-11-19T02:08:32;100602.75;;;12.52;88.67
55456;BME280;63021;52.836;6.376;2023-11-19T02:10:58;100596.53;;;12.51;88.59
55456;BME280;63021;52.836;6.376;2023-11-19T02:13:27;100609.72;;;12.53;88.78
55456;BME280;63021;52.836;6.376;2023-11-19T02:15:54;100604.38;;;12.53;88.65
55456;BME280;63021;52.836;6.376;2023-11-19T02:18:24;100608.91;;;12.52;88.17
55456;BME280;63021;52.836;6.376;2023-11-19T02:20:53;100608.06;;;12.52;88.52
55456;BME280;63021;52.836;6.376;2023-11-19T02:23:19;100609.72;;;12.53;88.54
55456;BME280;63021;52.836;6.376;2023-11-19T02:28:35;100607.56;;;12.48;88.20
55456;BME280;63021;52.836;6.376;2023-11-19T02:31:01;100612.41;;;12.53;88.42
55456;BME280;63021;52.836;6.376;2023-11-19T02:33:26;100613.25;;;12.53;88.43
55456;BME280;63021;52.836;6.376;2023-11-19T02:35:52;100605.25;;;12.53;88.24
55456;BME280;63021;52.836;6.376;2023-11-19T02:38:17;100600.22;;;12.50;88.14
55456;BME280;63021;52.836;6.376;2023-11-19T02:40:43;100583.69;;;12.46;87.94
55456;BME280;63021;52.836;6.376;2023-11-19T02:43:08;100569.34;;;12.39;87.64
55456;BME280;63021;52.836;6.376;2023-11-19T02:45:34;100566.66;;;12.39;88.03
55456;BME280;63021;52.836;6.376;2023-11-19T02:48:01;100588.53;;;12.43;88.48
55456;BME280;63021;52.836;6.376;2023-11-19T02:50:26;100584.69;;;12.45;88.17
55456;BME280;63021;52.836;6.376;2023-11-19T02:52:54;100587.69;;;12.42;87.58
55456;BME280;63021;52.836;6.376;2023-11-19T02:55:22;100594.88;;;12.42;88.15
55456;BME280;63021;52.836;6.376;2023-11-19T02:57:49;100590.03;;;12.37;87.87
55456;BME280;63021;52.836;6.376;2023-11-19T03:00:22;100593.38;;;12.39;87.66
55456;BME280;63021;52.836;6.376;2023-11-19T03:03:03;100593.69;;;12.36;87.49
55456;BME280;63021;52.836;6.376;2023-11-19T03:05:48;100595.19;;;12.30;87.48
55456;BME280;63021;52.836;6.376;2023-11-19T03:08:17;100583.00;;;12.28;87.09
55456;BME280;63021;52.836;6.376;2023-11-19T03:10:45;100579.69;;;12.26;87.38
55456;BME280;63021;52.836;6.376;2023-11-19T03:13:14;100576.81;;;12.19;87.36
55456;BME280;63021;52.836;6.376;2023-11-19T03:15:40;100571.81;;;12.16;87.38
55456;BME280;63021;52.836;6.376;2023-11-19T03:18:06;100578.69;;;12.27;88.04
55456;BME280;63021;52.836;6.376;2023-11-19T03:20:31;100585.19;;;12.24;87.52
55456;BME280;63021;52.836;6.376;2023-11-19T03:22:57;100563.16;;;12.14;87.72
55456;BME280;63021;52.836;6.376;2023-11-19T03:25:29;100570.66;;;12.19;87.66
55456;BME280;63021;52.836;6.376;2023-11-19T03:28:02;100571.50;;;12.19;87.95
55456;BME280;63021;52.836;6.376;2023-11-19T03:30:29;100579.16;;;12.22;88.15
55456;BME280;63021;52.836;6.376;2023-11-19T03:32:56;100577.34;;;12.23;87.52
55456;BME280;63021;52.836;6.376;2023-11-19T03:35:23;100579.00;;;12.24;87.68
55456;BME280;63021;52.836;6.376;2023-11-19T03:37:49;100577.34;;;12.23;87.39
55456;BME280;63021;52.836;6.376;2023-11-19T03:40:15;100572.19;;;12.21;87.63
55456;BME280;63021;52.836;6.376;2023-11-19T03:42:40;100572.84;;;12.23;87.49
55456;BME280;63021;52.836;6.376;2023-11-19T03:45:06;100568.47;;;12.22;87.46
55456;BME280;63021;52.836;6.376;2023-11-19T03:47:34;100572.34;;;12.20;87.59
55456;BME280;63021;52.836;6.376;2023-11-19T03:50:00;100564.47;;;12.18;86.90
55456;BME280;63021;52.836;6.376;2023-11-19T03:52:25;100567.81;;;12.20;87.38
55456;BME280;63021;52.836;6.376;2023-11-19T03:54:52;100571.31;;;12.21;87.53
55456;BME280;63021;52.836;6.376;2023-11-19T03:57:20;100564.63;;;12.17;87.29
55456;BME280;63021;52.836;6.376;2023-11-19T03:59:45;100551.31;;;12.08;87.60
55456;BME280;63021;52.836;6.376;2023-11-19T04:02:11;100551.47;;;12.07;87.39
55456;BME280;63021;52.836;6.376;2023-11-19T04:04:47;100538.09;;;11.99;87.83
55456;BME280;63021;52.836;6.376;2023-11-19T04:07:16;100555.94;;;12.06;87.00
55456;BME280;63021;52.836;6.376;2023-11-19T04:09:41;100566.00;;;12.12;87.27
55456;BME280;63021;52.836;6.376;2023-11-19T04:12:07;100559.94;;;12.02;87.19
55456;BME280;63021;52.836;6.376;2023-11-19T04:14:33;100555.13;;;12.06;87.17
55456;BME280;63021;52.836;6.376;2023-11-19T04:16:59;100568.31;;;12.07;87.13
55456;BME280;63021;52.836;6.376;2023-11-19T04:19:24;100557.78;;;11.98;86.94
55456;BME280;63021;52.836;6.376;2023-11-19T04:21:49;100563.09;;;11.98;86.71
55456;BME280;63021;52.836;6.376;2023-11-19T04:24:15;100550.22;;;11.93;87.17
55456;BME280;63021;52.836;6.376;2023-11-19T04:26:44;100558.75;;;11.96;86.64
55456;BME280;63021;52.836;6.376;2023-11-19T04:29:15;100565.78;;;11.98;86.31
55456;BME280;63021;52.836;6.376;2023-11-19T04:31:44;100552.88;;;11.85;86.87
55456;BME280;63021;52.836;6.376;2023-11-19T04:34:11;100567.09;;;11.93;86.93
55456;BME280;63021;52.836;6.376;2023-11-19T04:36:36;100548.84;;;11.81;86.80
55456;BME280;63021;52.836;6.376;2023-11-19T04:39:03;100570.88;;;11.91;86.45
55456;BME280;63021;52.836;6.376;2023-11-19T04:41:45;100569.41;;;11.88;86.55
55456;BME280;63021;52.836;6.376;2023-11-19T04:44:15;100561.84;;;11.84;86.63
55456;BME280;63021;52.836;6.376;2023-11-19T04:46:41;100564.03;;;11.80;86.59
55456;BME280;63021;52.836;6.376;2023-11-19T04:49:08;100567.53;;;11.81;86.34
55456;BME280;63021;52.836;6.376;2023-11-19T04:51:43;100551.97;;;11.68;85.72
55456;BME280;63021;52.836;6.376;2023-11-19T04:54:15;100562.19;;;11.72;86.19
55456;BME280;63021;52.836;6.376;2023-11-19T04:56:45;100553.28;;;11.64;85.91
55456;BME280;63021;52.836;6.376;2023-11-19T04:59:10;100564.97;;;11.71;86.26
55456;BME280;63021;52.836;6.376;2023-11-19T05:01:36;100579.34;;;11.70;86.47
55456;BME280;63021;52.836;6.376;2023-11-19T05:04:01;100569.66;;;11.69;86.09
55456;BME280;63021;52.836;6.376;2023-11-19T05:06:28;100567.97;;;11.68;86.20
55456;BME280;63021;52.836;6.376;2023-11-19T05:08:54;100559.00;;;11.69;86.00
55456;BME280;63021;52.836;6.376;2023-11-19T05:11:20;100568.66;;;11.70;85.58
55456;BME280;63021;52.836;6.376;2023-11-19T05:13:46;100564.66;;;11.66;86.22
55456;BME280;63021;52.836;6.376;2023-11-19T05:16:11;100566.28;;;11.58;86.21
55456;BME280;63021;52.836;6.376;2023-11-19T05:18:39;100580.16;;;11.70;85.83
55456;BME280;63021;52.836;6.376;2023-11-19T05:21:05;100548.28;;;11.52;85.34
55456;BME280;63021;52.836;6.376;2023-11-19T05:23:32;100545.28;;;11.55;85.66
55456;BME280;63021;52.836;6.376;2023-11-19T05:25:59;100550.78;;;11.54;85.59
55456;BME280;63021;52.836;6.376;2023-11-19T05:28:25;100542.09;;;11.52;85.88
55456;BME280;63021;52.836;6.376;2023-11-19T05:30:54;100546.28;;;11.54;85.70
55456;BME280;63021;52.836;6.376;2023-11-19T05:33:25;100549.94;;;11.53;85.47
55456;BME280;63021;52.836;6.376;2023-11-19T05:35:57;100540.94;;;11.54;85.80
55456;BME280;63021;52.836;6.376;2023-11-19T05:38:36;100561.63;;;11.60;85.32
55456;BME280;63021;52.836;6.376;2023-11-19T05:41:15;100577.00;;;11.67;85.08
55456;BME280;63021;52.836;6.376;2023-11-19T05:43:41;100558.44;;;11.57;85.27
55456;BME280;63021;52.836;6.376;2023-11-19T05:46:10;100561.28;;;11.55;85.01
55456;BME280;63021;52.836;6.376;2023-11-19T05:48:36;100573.47;;;11.58;85.05
55456;BME280;63021;52.836;6.376;2023-11-19T05:51:05;100564.78;;;11.56;85.07
55456;BME280;63021;52.836;6.376;2023-11-19T05:53:31;100580.09;;;11.54;84.10
55456;BME280;63021;52.836;6.376;2023-11-19T05:55:56;100587.94;;;11.64;84.25
55456;BME280;63021;52.836;6.376;2023-11-19T05:58:26;100594.13;;;11.64;84.90
55456;BME280;63021;52.836;6.376;2023-11-19T06:04:10;100572.56;;;11.49;83.96
55456;BME280;63021;52.836;6.376;2023-11-19T06:06:42;100567.59;;;11.54;83.77
55456;BME280;63021;52.836;6.376;2023-11-19T06:09:19;100550.38;;;11.40;83.43
55456;BME280;63021;52.836;6.376;2023-11-19T06:11:55;100555.19;;;11.37;83.71
55456;BME280;63021;52.836;6.376;2023-11-19T06:14:31;100554.88;;;11.40;83.12
55456;BME280;63021;52.836;6.376;2023-11-19T06:17:03;100564.38;;;11.42;83.29
55456;BME280;63021;52.836;6.376;2023-11-19T06:19:54;100582.19;;;11.42;83.68
55456;BME280;63021;52.836;6.376;2023-11-19T06:22:28;100588.84;;;11.38;83.33
55456;BME280;63021;52.836;6.376;2023-11-19T06:24:56;100552.81;;;11.25;83.16
55456;BME280;63021;52.836;6.376;2023-11-19T06:27:23;100562.81;;;11.23;83.17
55456;BME280;63021;52.836;6.376;2023-11-19T06:29:59;100578.66;;;11.33;83.36
55456;BME280;63021;52.836;6.376;2023-11-19T06:32:37;100588.16;;;11.36;82.95
55456;BME280;63021;52.836;6.376;2023-11-19T06:35:09;100582.50;;;11.31;82.85
55456;BME280;63021;52.836;6.376;2023-11-19T06:37:41;100589.63;;;11.30;82.58
55456;BME280;63021;52.836;6.376;2023-11-19T06:40:36;100600.97;;;11.32;83.04
55456;BME280;63021;52.836;6.376;2023-11-19T06:43:11;100598.16;;;11.34;82.69
55456;BME280;63021;52.836;6.376;2023-11-19T06:45:45;100601.66;;;11.34;82.82
55456;BME280;63021;52.836;6.376;2023-11-19T06:48:17;100570.91;;;11.14;82.71
55456;BME280;63021;52.836;6.376;2023-11-19T06:50:49;100589.47;;;11.32;82.22
55456;BME280;63021;52.836;6.376;2023-11-19T06:53:24;100591.31;;;11.31;82.18
55456;BME280;63021;52.836;6.376;2023-11-19T06:55:59;100585.94;;;11.23;81.90
55456;BME280;63021;52.836;6.376;2023-11-19T06:58:37;100596.44;;;11.24;81.64
55456;BME280;63021;52.836;6.376;2023-11-19T07:01:13;100598.75;;;11.19;82.09
55456;BME280;63021;52.836;6.376;2023-11-19T07:03:51;100583.34;;;11.05;82.19
55456;BME280;63021;52.836;6.376;2023-11-19T07:06:27;100602.06;;;11.21;81.72
55456;BME280;63021;52.836;6.376;2023-11-19T07:09:10;100598.03;;;11.17;82.58
55456;BME280;63021;52.836;6.376;2023-11-19T07:12:35;100603.91;;;11.21;81.98
55456;BME280;63021;52.836;6.376;2023-11-19T07:15:04;100604.84;;;11.12;81.99
55456;BME280;63021;52.836;6.376;2023-11-19T07:17:57;100585.63;;;11.00;81.30
55456;BME280;63021;52.836;6.376;2023-11-19T07:20:26;100607.00;;;11.08;82.35
55456;BME280;63021;52.836;6.376;2023-11-19T07:23:04;100609.34;;;11.11;81.55
55456;BME280;63021;52.836;6.376;2023-11-19T07:25:33;100621.84;;;11.11;82.17
55456;BME280;63021;52.836;6.376;2023-11-19T07:28:03;100604.66;;;11.05;82.03
55456;BME280;63021;52.836;6.376;2023-11-19T07:30:33;100615.34;;;11.13;81.94
55456;BME280;63021;52.836;6.376;2023-11-19T07:33:01;100617.19;;;11.13;81.82
55456;BME280;63021;52.836;6.376;2023-11-19T07:35:35;100629.69;;;11.20;82.29
55456;BME280;63021;52.836;6.376;2023-11-19T07:38:15;100635.50;;;11.16;81.97
55456;BME280;63021;52.836;6.376;2023-11-19T07:40:48;100624.63;;;11.09;82.04
55456;BME280;63021;52.836;6.376;2023-11-19T07:43:19;100614.44;;;11.04;82.09
55456;BME280;63021;52.836;6.376;2023-11-19T07:45:56;100656.19;;;11.22;81.61
55456;BME280;63021;52.836;6.376;2023-11-19T07:48:25;100645.19;;;11.17;81.65
55456;BME280;63021;52.836;6.376;2023-11-19T07:50:56;100651.56;;;11.24;81.43
55456;BME280;63021;52.836;6.376;2023-11-19T07:53:34;100658.03;;;11.21;81.63
55456;BME280;63021;52.836;6.376;2023-11-19T07:56:09;100630.50;;;11.13;81.56
55456;BME280;63021;52.836;6.376;2023-11-19T07:58:39;100657.72;;;11.24;81.43
55456;BME280;63021;52.836;6.376;2023-11-19T08:01:10;100644.88;;;11.20;81.66
55456;BME280;63021;52.836;6.376;2023-11-19T08:03:36;100663.59;;;11.28;81.86
55456;BME280;63021;52.836;6.376;2023-11-19T08:06:27;100647.84;;;11.17;81.43
55456;BME280;63021;52.836;6.376;2023-11-19T08:09:01;100630.13;;;11.07;81.52
55456;BME280;63021;52.836;6.376;2023-11-19T08:11:54;100660.06;;;11.27;81.43
55456;BME280;63021;52.836;6.376;2023-11-19T08:14:36;100647.38;;;11.21;81.63
55456;BME280;63021;52.836;6.376;2023-11-19T08:20:10;100664.25;;;11.30;81.38
55456;BME280;63021;52.836;6.376;2023-11-19T08:23:23;100637.19;;;11.17;81.15
55456;BME280;63021;52.836;6.376;2023-11-19T08:26:38;100633.00;;;11.14;81.15
55456;BME280;63021;52.836;6.376;2023-11-19T08:29:16;100667.78;;;11.31;81.04
55456;BME280;63021;52.836;6.376;2023-11-19T08:35:04;100665.78;;;11.33;81.36
55456;BME280;63021;52.836;6.376;2023-11-19T08:40:52;100662.94;;;11.34;81.37
55456;BME280;63021;52.836;6.376;2023-11-19T08:43:40;100655.59;;;11.28;80.88
55456;BME280;63021;52.836;6.376;2023-11-19T08:46:17;100656.25;;;11.30;80.47
55456;BME280;63021;52.836;6.376;2023-11-19T08:48:55;100664.94;;;11.32;81.12
55456;BME280;63021;52.836;6.376;2023-11-19T08:51:28;100654.38;;;11.22;81.20
55456;BME280;63021;52.836;6.376;2023-11-19T08:53:59;100680.00;;;11.41;81.28
55456;BME280;63021;52.836;6.376;2023-11-19T08:56:49;100650.25;;;11.28;81.67
55456;BME280;63021;52.836;6.376;2023-11-19T08:59:42;100661.25;;;11.33;81.26
55456;BME280;63021;52.836;6.376;2023-11-19T09:02:21;100649.25;;;11.29;80.65
55456;BME280;63021;52.836;6.376;2023-11-19T09:04:50;100651.63;;;11.32;81.24
55456;BME280;63021;52.836;6.376;2023-11-19T09:07:27;100679.06;;;11.51;81.48
55456;BME280;63021;52.836;6.376;2023-11-19T09:10:28;100675.69;;;11.49;80.80
55456;BME280;63021;52.836;6.376;2023-11-19T09:13:14;100682.91;;;11.56;81.15
55456;BME280;63021;52.836;6.376;2023-11-19T09:15:47;100665.03;;;11.49;81.22
55456;BME280;63021;52.836;6.376;2023-11-19T09:18:50;100650.50;;;11.43;80.82
55456;BME280;63021;52.836;6.376;2023-11-19T09:21:24;100672.63;;;11.61;80.79
55456;BME280;63021;52.836;6.376;2023-11-19T09:24:44;100653.56;;;11.48;80.90
55456;BME280;63021;52.836;6.376;2023-11-19T09:27:55;100672.44;;;11.63;80.99
55456;BME280;63021;52.836;6.376;2023-11-19T09:34:01;100665.28;;;11.64;80.95
55456;BME280;63021;52.836;6.376;2023-11-19T09:36:59;100679.69;;;11.79;80.64
55456;BME280;63021;52.836;6.376;2023-11-19T09:39:40;100669.34;;;11.76;80.56
55456;BME280;63021;52.836;6.376;2023-11-19T09:45:09;100675.25;;;11.88;80.33
55456;BME280;63021;52.836;6.376;2023-11-19T09:48:17;100659.72;;;11.83;80.07
55456;BME280;63021;52.836;6.376;2023-11-19T09:51:21;100653.41;;;11.84;80.26
55456;BME280;63021;52.836;6.376;2023-11-19T09:57:09;100639.53;;;11.81;79.95
55456;BME280;63021;52.836;6.376;2023-11-19T09:59:50;100661.31;;;11.94;79.70
55456;BME280;63021;52.836;6.376;2023-11-19T10:02:36;100657.63;;;11.95;80.13
55456;BME280;63021;52.836;6.376;2023-11-19T10:05:17;100658.91;;;11.91;79.83
55456;BME280;63021;52.836;6.376;2023-11-19T10:07:46;100665.78;;;11.93;79.21
55456;BME280;63021;52.836;6.376;2023-11-19T10:10:36;100651.56;;;11.85;79.30
55456;BME280;63021;52.836;6.376;2023-11-19T10:13:19;100663.97;;;11.94;79.72
55456;BME280;63021;52.836;6.376;2023-11-19T10:17:07;100645.72;;;11.81;79.51
55456;BME280;63021;52.836;6.376;2023-11-19T10:19:40;100659.88;;;11.82;80.01
55456;BME280;63021;52.836;6.376;2023-11-19T10:22:41;100659.22;;;11.88;79.96
55456;BME280;63021;52.836;6.376;2023-11-19T10:25:34;100633.16;;;11.73;79.88
55456;BME280;63021;52.836;6.376;2023-11-19T10:28:27;100654.03;;;11.78;79.96
55456;BME280;63021;52.836;6.376;2023-11-19T10:31:02;100630.63;;;11.64;80.06
55456;BME280;63021;52.836;6.376;2023-11-19T10:33:39;100635.00;;;11.73;79.62
55456;BME280;63021;52.836;6.376;2023-11-19T10:36:09;100658.91;;;11.83;80.03
55456;BME280;63021;52.836;6.376;2023-11-19T10:39:01;100635.84;;;11.73;79.93
55456;BME280;63021;52.836;6.376;2023-11-19T10:44:45;100654.75;;;11.88;79.96
55456;BME280;63021;52.836;6.376;2023-11-19T10:47:25;100652.75;;;11.90;79.56
55456;BME280;63021;52.836;6.376;2023-11-19T10:50:13;100628.69;;;11.74;79.71
55456;BME280;63021;52.836;6.376;2023-11-19T10:53:03;100637.41;;;11.84;79.93
55456;BME280;63021;52.836;6.376;2023-11-19T10:56:11;100634.88;;;11.83;79.71
55456;BME280;63021;52.836;6.376;2023-11-19T10:58:59;100611.50;;;11.76;79.40
55456;BME280;63021;52.836;6.376;2023-11-19T11:01:53;100654.97;;;11.95;79.31
55456;BME280;63021;52.836;6.376;2023-11-19T11:04:48;100642.25;;;11.89;79.68
55456;BME280;63021;52.836;6.376;2023-11-19T11:07:27;100655.97;;;11.94;79.21
55456;BME280;63021;52.836;6.376;2023-11-19T11:10:22;100639.38;;;11.82;79.53
55456;BME280;63021;52.836;6.376;2023-11-19T11:13:05;100666.81;;;12.01;79.54
55456;BME280;63021;52.836;6.376;2023-11-19T11:15:48;100666.81;;;12.01;79.40
55456;BME280;63021;52.836;6.376;2023-11-19T11:18:30;100628.69;;;11.82;79.85
55456;BME280;63021;52.836;6.376;2023-11-19T11:21:13;100643.59;;;11.93;79.95
55456;BME280;63021;52.836;6.376;2023-11-19T11:33:16;100633.25;;;11.90;80.09
55456;BME280;63021;52.836;6.376;2023-11-19T11:38:29;100642.31;;;11.97;80.21
55456;BME280;63021;52.836;6.376;2023-11-19T11:41:19;100650.34;;;12.05;80.47
55456;BME280;63021;52.836;6.376;2023-11-19T11:44:08;100626.63;;;11.94;80.63
55456;BME280;63021;52.836;6.376;2023-11-19T11:47:00;100652.00;;;12.06;80.21
55456;BME280;63021;52.836;6.376;2023-11-19T11:50:03;100625.41;;;11.88;80.33
55456;BME280;63021;52.836;6.376;2023-11-19T11:55:52;100615.25;;;11.92;80.18
55456;BME280;63021;52.836;6.376;2023-11-19T11:58:29;100639.16;;;12.02;80.56
55456;BME280;63021;52.836;6.376;2023-11-19T12:00:59;100633.47;;;11.96;80.67
55456;BME280;63021;52.836;6.376;2023-11-19T12:03:30;100638.00;;;12.04;80.31
55456;BME280;63021;52.836;6.376;2023-11-19T12:06:05;100638.81;;;12.05;80.68
55456;BME280;63021;52.836;6.376;2023-11-19T12:08:37;100622.94;;;11.95;81.08
55456;BME280;63021;52.836;6.376;2023-11-19T12:11:05;100638.16;;;12.03;80.73
55456;BME280;63021;52.836;6.376;2023-11-19T12:13:48;100638.94;;;11.95;80.64
55456;BME280;63021;52.836;6.376;2023-11-19T12:16:21;100647.97;;;11.94;80.74
55456;BME280;63021;52.836;6.376;2023-11-19T12:18:49;100641.22;;;11.82;80.75
55456;BME280;63021;52.836;6.376;2023-11-19T12:21:32;100630.19;;;11.76;80.74
55456;BME280;63021;52.836;6.376;2023-11-19T12:24:06;100645.88;;;11.79;81.49
55456;BME280;63021;52.836;6.376;2023-11-19T12:26:37;100636.09;;;11.62;81.23
55456;BME280;63021;52.836;6.376;2023-11-19T12:29:05;100633.44;;;11.62;81.65
55456;BME280;63021;52.836;6.376;2023-11-19T12:31:32;100615.91;;;11.51;81.48
55456;BME280;63021;52.836;6.376;2023-11-19T12:34:07;100619.25;;;11.53;81.90
55456;BME280;63021;52.836;6.376;2023-11-19T12:36:37;100618.91;;;11.56;82.12
55456;BME280;63021;52.836;6.376;2023-11-19T12:39:11;100629.44;;;11.58;81.98
55456;BME280;63021;52.836;6.376;2023-11-19T12:41:53;100603.06;;;11.47;82.18
55456;BME280;63021;52.836;6.376;2023-11-19T12:44:34;100628.75;;;11.56;82.13
55456;BME280;63021;52.836;6.376;2023-11-19T12:47:04;100609.22;;;11.47;82.45
55456;BME280;63021;52.836;6.376;2023-11-19T12:49:34;100633.16;;;11.65;83.05
55456;BME280;63021;52.836;6.376;2023-11-19T12:52:00;100641.00;;;11.67;82.53
55456;BME280;63021;52.836;6.376;2023-11-19T12:54:46;100604.56;;;11.49;83.53
55456;BME280;63021;52.836;6.376;2023-11-19T12:57:20;100624.13;;;11.58;82.46
55456;BME280;63021;52.836;6.376;2023-11-19T12:59:55;100636.47;;;11.67;82.70
55456;BME280;63021;52.836;6.376;2023-11-19T13:02:58;100608.72;;;11.52;82.72
55456;BME280;63021;52.836;6.376;2023-11-19T13:05:33;100612.44;;;11.59;82.49
55456;BME280;63021;52.836;6.376;2023-11-19T13:08:15;100629.84;;;11.71;82.79
55456;BME280;63021;52.836;6.376;2023-11-19T13:10:57;100614.13;;;11.60;82.87
55456;BME280;63021;52.836;6.376;2023-11-19T13:13:32;100613.44;;;11.58;82.65
55456;BME280;63021;52.836;6.376;2023-11-19T13:16:02;100621.63;;;11.65;82.94
55456;BME280;63021;52.836;6.376;2023-11-19T13:18:33;100605.59;;;11.56;82.66
55456;BME280;63021;52.836;6.376;2023-11-19T13:21:01;100634.69;;;11.76;82.51
55456;BME280;63021;52.836;6.376;2023-11-19T13:23:31;100617.66;;;11.69;82.80
55456;BME280;63021;52.836;6.376;2023-11-19T13:25:56;100605.63;;;11.65;82.73
55456;BME280;63021;52.836;6.376;2023-11-19T13:28:25;100631.53;;;11.81;82.53
55456;BME280;63021;52.836;6.376;2023-11-19T13:34:06;100615.53;;;11.72;82.12
55456;BME280;63021;52.836;6.376;2023-11-19T13:36:40;100609.59;;;11.60;82.12
55456;BME280;63021;52.836;6.376;2023-11-19T13:39:06;100631.38;;;11.82;82.01
55456;BME280;63021;52.836;6.376;2023-11-19T13:41:32;100633.03;;;11.83;81.98
55456;BME280;63021;52.836;6.376;2023-11-19T13:43:58;100595.28;;;11.61;81.71
55456;BME280;63021;52.836;6.376;2023-11-19T13:46:32;100616.50;;;11.71;81.59
55456;BME280;63021;52.836;6.376;2023-11-19T13:49:06;100615.34;;;11.74;81.41
55456;BME280;63021;52.836;6.376;2023-11-19T13:51:32;100628.88;;;11.81;81.61
55456;BME280;63021;52.836;6.376;2023-11-19T13:54:00;100631.69;;;11.79;80.88
55456;BME280;63021;52.836;6.376;2023-11-19T13:56:26;100640.03;;;11.76;81.71
55456;BME280;63021;52.836;6.376;2023-11-19T13:58:51;100616.13;;;11.66;81.44
55456;BME280;63021;52.836;6.376;2023-11-19T14:01:25;100640.50;;;11.71;81.35
55456;BME280;63021;52.836;6.376;2023-11-19T14:03:54;100631.97;;;11.68;80.98
55456;BME280;63021;52.836;6.376;2023-11-19T14:06:25;100607.22;;;11.49;81.10
55456;BME280;63021;52.836;6.376;2023-11-19T14:08:53;100644.63;;;11.66;81.25
55456;BME280;63021;52.836;6.376;2023-11-19T14:14:11;100635.75;;;11.57;80.97
55456;BME280;63021;52.836;6.376;2023-11-19T14:16:40;100621.91;;;11.53;81.68
55456;BME280;63021;52.836;6.376;2023-11-19T14:19:08;100612.38;;;11.42;82.45